Data for 05/27/2009

Time Sea-Level Adjusted Pressure Absolute Pressure Temperature Relative Humidity Dew Point   
(mb) (inHg) (mb) (inHg) (C) (F) (%) (C) (F)
00:05 1018 30.06 847 25.01 12.6 54.6 48 1.8 35.3
00:10 1018 30.06 847 25.01 12.6 54.6 47 1.5 34.8
00:15 1018 30.06 847 25.01 12.7 54.8 47 1.7 35
00:20 1018 30.06 847 25.01 12.5 54.5 48 1.8 35.3
00:25 1018 30.06 847 25.01 12.2 53.9 49 1.8 35.3
00:30 1018 30.06 847 25.01 12 53.6 49 1.8 35.2
00:35 1018 30.06 847 25.01 12 53.6 50 1.9 35.3
00:40 1018 30.06 847 25.01 12 53.7 49 1.8 35.2
00:45 1018 30.06 847 25.01 12 53.6 49 1.8 35.3
00:50 1018 30.06 847 25.01 11.9 53.4 48 1.3 34.4
00:55 1018 30.06 847 25.01 11.9 53.5 47 1 33.8
01:00 1018 30.06 847 25.01 11.9 53.5 47 1.2 34.1
01:05 1018 30.06 847 25.01 11.8 53.2 50 1.8 35.2
01:10 1018 30.06 848 25.04 11.5 52.8 51 1.7 35
01:15 1018 30.06 848 25.04 11.4 52.6 51 1.7 35.1
01:20 1018 30.06 848 25.04 11.3 52.3 52 1.8 35.2
01:25 1018 30.06 848 25.04 11.4 52.5 51 1.7 35.1
01:30 1018 30.06 848 25.04 11.4 52.5 51 1.8 35.2
01:35 1018 30.06 848 25.04 11.6 52.8 50 1.5 34.8
01:40 1018 30.06 848 25.04 11.7 53 49 1.4 34.5
01:45 1018 30.06 848 25.04 11.7 53 50 1.7 35.1
01:50 1018 30.06 848 25.04 11.4 52.5 51 1.8 35.2
01:55 1018 30.06 848 25.04 11.1 52 54 2.2 36
02:00 1018 30.06 848 25.04 10.8 51.4 55 2.1 35.9
02:05 1018 30.06 848 25.04 10.9 51.5 54 1.9 35.4
02:10 1018 30.06 848 25.04 10.8 51.5 55 2.1 35.8
02:15 1018 30.06 848 25.04 10.7 51.3 55 2.1 35.8
02:20 1019 30.09 848 25.04 10.7 51.2 55 2.1 35.9
02:25 1019 30.09 848 25.04 10.6 51.1 55 2.1 35.8
02:30 1019 30.09 848 25.04 10.7 51.3 54 1.8 35.2
02:35 1019 30.09 848 25.04 10.9 51.6 53 1.6 35
02:40 1019 30.09 848 25.04 11.1 51.9 52 1.7 35
02:45 1019 30.09 848 25.04 11.1 51.9 53 2 35.5
02:50 1019 30.09 848 25.04 10.8 51.5 53 1.7 35.1
02:55 1019 30.09 848 25.04 10.9 51.5 53 1.8 35.2
03:00 1019 30.09 848 25.04 10.8 51.5 53 1.8 35.2
03:05 1019 30.09 848 25.04 10.8 51.5 53 1.7 35.1
03:10 1019 30.09 848 25.04 10.8 51.5 54 1.9 35.5
03:15 1019 30.09 848 25.04 10.6 51 55 2 35.6
03:20 1019 30.09 848 25.04 10.4 50.7 55 1.7 35
03:25 1019 30.09 848 25.04 10.6 51 53 1.4 34.5
03:30 1019 30.09 848 25.04 10.8 51.5 51 1.2 34.1
03:35 1019 30.09 848 25.04 11 51.7 50 1.1 34
03:40 1019 30.09 848 25.04 11.1 52 50 1 33.9
03:45 1019 30.09 848 25.04 11 51.8 50 1.1 33.9
03:50 1019 30.09 848 25.04 11 51.8 50 0.9 33.7
03:55 1019 30.09 848 25.04 11 51.8 50 1.1 34
04:00 1019 30.09 848 25.04 10.5 50.9 54 1.6 34.8
04:05 1019 30.09 848 25.04 10 50.1 55 1.4 34.5
04:10 1019 30.09 848 25.04 10 50 54 1.1 34.1
04:15 1019 30.09 848 25.04 10.3 50.5 53 1.1 34
04:20 1019 30.09 848 25.04 10.3 50.5 53 1.3 34.3
04:25 1019 30.09 848 25.04 10.3 50.5 52 1 33.8
04:30 1019 30.09 848 25.04 10.3 50.5 53 1.2 34.1
04:35 1019 30.09 848 25.04 10.2 50.4 53 1.1 33.9
04:40 1019 30.09 848 25.04 10.1 50.1 54 1.2 34.1
04:45 1019 30.09 848 25.04 9.7 49.5 56 1.4 34.4
04:50 1019 30.09 848 25.04 9.8 49.7 52 0.6 33.1
04:55 1019 30.09 848 25.04 10.2 50.4 51 0.6 33
05:00 1019 30.09 848 25.04 10.4 50.8 51 0.8 33.4
05:05 1019 30.09 848 25.04 10.4 50.6 51 0.6 33.1
05:10 1019 30.09 848 25.04 10.6 51 50 0.5 32.9
05:15 1019 30.09 848 25.04 10.6 51 49 0.2 32.4
05:20 1019 30.09 848 25.04 10.7 51.2 50 0.8 33.5
05:25 1019 30.09 848 25.04 10.2 50.3 53 1 33.7
05:30 1019 30.09 848 25.04 9.8 49.6 54 1 33.7
05:35 1019 30.09 848 25.04 9.5 49.1 54 0.7 33.3
05:40 1019 30.09 848 25.04 9.6 49.2 54 0.7 33.2
05:45 1019 30.09 849 25.07 9.6 49.4 54 0.8 33.5
05:50 1019 30.09 849 25.07 9.5 49.1 54 0.8 33.4
05:55 1019 30.09 849 25.07 9.4 48.8 55 0.8 33.4
06:00 1019 30.09 849 25.07 9.2 48.6 56 0.8 33.5
06:05 1019 30.09 849 25.07 9.1 48.4 56 0.9 33.7
06:10 1019 30.09 849 25.07 8.9 48 59 1.2 34.2
06:15 1020 30.12 849 25.07 8.4 47.1 62 1.5 34.7
06:20 1020 30.12 849 25.07 7.9 46.2 63 1.3 34.3
06:25 1020 30.12 849 25.07 7.8 46.1 63 1.2 34.1
06:30 1020 30.12 849 25.07 8.3 46.9 58 0.6 33.1
06:35 1020 30.12 849 25.07 8.8 47.8 60 1.4 34.5
06:40 1020 30.12 849 25.07 8.5 47.2 61 1.3 34.4
06:45 1020 30.12 849 25.07 8.6 47.4 59 1 33.8
06:50 1020 30.12 849 25.07 9.1 48.4 57 1 33.8
06:55 1020 30.12 849 25.07 9.5 49 56 1.3 34.3
07:00 1020 30.12 849 25.07 9.9 49.9 55 1.3 34.3
07:05 1020 30.12 849 25.07 10.2 50.3 54 1.3 34.3
07:10 1020 30.12 849 25.07 10.4 50.7 54 1.6 34.9
07:15 1020 30.12 849 25.07 10.6 51.1 53 1.6 34.8
07:20 1020 30.12 849 25.07 11.1 52 52 1.8 35.2
07:25 1020 30.12 849 25.07 11.3 52.3 51 1.7 35.1
07:30 1020 30.12 849 25.07 11.3 52.4 53 2.2 35.9
07:35 1020 30.12 849 25.07 11.4 52.4 50 1.4 34.5
07:40 1020 30.12 849 25.07 11.8 53.3 50 1.9 35.3
07:45 1020 30.12 849 25.07 12.2 53.9 50 2.1 35.7
07:50 1020 30.12 849 25.07 12.8 55 49 2.5 36.5
07:55 1020 30.12 849 25.07 13.4 56.2 51 3.4 38.2
08:00 1020 30.12 849 25.07 13.2 55.7 52 3.7 38.7
08:05 1020 30.12 849 25.07 13.7 56.6 49 3.2 37.7
08:10 1020 30.12 849 25.07 14.3 57.7 42 1.5 34.7
08:15 1020 30.12 849 25.07 14.9 58.8 40 1.6 34.8
08:20 1020 30.12 849 25.07 15.4 59.7 38 1.4 34.5
08:25 1020 30.12 849 25.07 15.6 60 39 1.7 35
08:30 1020 30.12 849 25.07 16.1 60.9 36 1.1 34
08:35 1020 30.12 849 25.07 16.2 61.1 37 1.5 34.7
08:40 1020 30.12 849 25.07 16.6 61.9 34 0.8 33.5
08:45 1020 30.12 849 25.07 16.8 62.2 33 0.7 33.3
08:50 1020 30.12 849 25.07 16.9 62.5 33 0.8 33.5
08:55 1020 30.12 850 25.1 17 62.6 34 1.2 34.2
09:00 1020 30.12 850 25.1 17 62.6 33 0.7 33.3
09:05 1020 30.12 850 25.1 17.4 63.3 33 1.2 34.1
09:10 1020 30.12 850 25.1 17.8 64 32 1 33.9
09:15 1020 30.12 850 25.1 17.9 64.2 32 1.1 33.9
09:20 1020 30.12 850 25.1 17.8 64 32 1.2 34.1
09:25 1020 30.12 850 25.1 17.8 64 31 0.6 33.1
09:30 1020 30.12 850 25.1 18.1 64.5 31 0.9 33.6
09:35 1020 30.12 850 25.1 18.4 65 31 1 33.9
09:40 1020 30.12 850 25.1 18.4 65.1 30 0.9 33.5
09:45 1020 30.12 850 25.1 18.2 64.7 32 1.4 34.6
09:50 1020 30.12 850 25.1 18.2 64.8 31 0.9 33.6
09:55 1020 30.12 850 25.1 18.3 65 31 1.3 34.3
10:00 1020 30.12 850 25.1 18.2 64.8 30 0.7 33.3
10:05 1020 30.12 850 25.1 18.1 64.5 31 0.8 33.5
10:10 1020 30.12 849 25.07 18 64.4 31 0.8 33.4
10:15 1020 30.12 849 25.07 18.5 65.3 31 1 33.8
10:20 1020 30.12 849 25.07 18.6 65.4 31 1.1 34
10:25 1020 30.12 849 25.07 18.8 65.8 30 0.9 33.6
10:30 1020 30.12 849 25.07 18.7 65.6 31 1.2 34.2
10:35 1020 30.12 849 25.07 19 66.1 30 1.1 34
10:40 1020 30.12 849 25.07 18.6 65.5 32 1.7 35
10:45 1020 30.12 849 25.07 18.8 65.9 31 1.4 34.6
10:50 1020 30.12 849 25.07 18.5 65.3 31 1.2 34.2
10:55 1020 30.12 849 25.07 19.4 66.9 29 1.2 34.2
11:00 1020 30.12 849 25.07 19.5 67.1 28 0.6 33
11:05 1020 30.12 849 25.07 18.9 65.9 29 0.7 33.2
11:10 1020 30.12 849 25.07 19 66.1 28 0.2 32.4
11:15 1020 30.12 849 25.07 19.2 66.6 28 0.5 32.9
11:20 1020 30.12 849 25.07 19.8 67.7 27 0.3 32.5
11:25 1020 30.12 849 25.07 20.1 68.1 25 -0.1 31.7
11:30 1020 30.12 849 25.07 20 68 26 -0.2 31.7
11:35 1020 30.12 849 25.07 18.9 65.9 27 -0.4 31.2
11:40 1020 30.12 849 25.07 19 66.1 25 -1.2 29.9
11:45 1020 30.12 849 25.07 20.1 68.1 26 0.4 32.6
11:50 1020 30.12 849 25.07 20.1 68.2 26 0.3 32.5
11:55 1020 30.12 849 25.07 20.6 69 24 -0.3 31.4
12:00 1020 30.12 849 25.07 20.9 69.7 24 -0.1 31.8
12:05 1020 30.12 849 25.07 20.2 68.4 25 -0.2 31.6
12:10 1020 30.12 849 25.07 20.5 69 25 0 32
12:15 1020 30.12 849 25.07 20.2 68.3 24 -0.7 30.8
12:20 1020 30.12 849 25.07 20.4 68.6 24 -0.8 30.5
12:25 1020 30.12 849 25.07 20.4 68.8 23 -1.2 29.9
12:30 1019 30.09 849 25.07 20.5 68.9 23 -0.9 30.4
12:35 1019 30.09 849 25.07 21.2 70.1 25 0.4 32.7
12:40 1019 30.09 849 25.07 21.4 70.5 23 -0.2 31.6
12:45 1019 30.09 848 25.04 19.8 67.7 25 -0.6 30.9
12:50 1019 30.09 848 25.04 19.5 67.2 26 -0.5 31.1
12:55 1019 30.09 848 25.04 20 68.1 25 -0.6 30.9
13:00 1019 30.09 848 25.04 20.9 69.7 24 -0.1 31.8
13:05 1019 30.09 848 25.04 21.6 70.9 24 0.6 33
13:10 1019 30.09 848 25.04 21.6 70.8 25 0.7 33.3
13:15 1019 30.09 848 25.04 21.6 70.8 23 -0.4 31.3
13:20 1019 30.09 848 25.04 21.2 70.2 24 0.1 32.2
13:25 1019 30.09 848 25.04 21.9 71.4 24 0.4 32.8
13:30 1019 30.09 848 25.04 22.1 71.8 23 0.3 32.6
13:35 1019 30.09 848 25.04 20.7 69.3 25 0 32.1
13:40 1019 30.09 848 25.04 20.5 68.9 24 -0.5 31.2
13:45 1019 30.09 848 25.04 22 71.6 23 0.3 32.6
13:50 1019 30.09 848 25.04 22.7 72.8 22 0.3 32.6
13:55 1019 30.09 848 25.04 22.9 73.2 23 0.7 33.3
14:00 1019 30.09 848 25.04 22.4 72.3 23 0.3 32.5
14:05 1019 30.09 848 25.04 22.8 73 21 -0.3 31.5
14:10 1019 30.09 848 25.04 23.3 74 22 0.8 33.5
14:15 1019 30.09 848 25.04 22.4 72.4 24 1.2 34.1
14:20 1019 30.09 848 25.04 21.9 71.3 22 -0.4 31.2
14:25 1018 30.06 848 25.04 23.3 74 21 0.2 32.3
14:30 1018 30.06 848 25.04 22.8 73.1 22 0.4 32.7
14:35 1018 30.06 848 25.04 23.2 73.7 21 0.1 32.2
14:40 1018 30.06 848 25.04 24.3 75.7 21 0.8 33.4
14:45 1018 30.06 848 25.04 23.5 74.4 21 0.5 32.8
14:50 1018 30.06 848 25.04 22.4 72.3 24 0.8 33.4
14:55 1018 30.06 848 25.04 22.8 73.1 22 0.4 32.7
15:00 1018 30.06 848 25.04 23.2 73.8 22 0.5 32.8
15:05 1018 30.06 847 25.01 23.5 74.3 22 1 33.7
15:10 1018 30.06 847 25.01 23.5 74.2 22 1 33.8
15:15 1018 30.06 847 25.01 23.6 74.6 23 1.4 34.5
15:20 1018 30.06 847 25.01 24 75.3 21 0.7 33.3
15:25 1018 30.06 847 25.01 24.5 76.2 20 0.1 32.1
15:30 1018 30.06 847 25.01 24.9 76.7 19 -0.3 31.5
15:35 1018 30.06 847 25.01 24.8 76.7 21 0.9 33.7
15:40 1018 30.06 847 25.01 24.4 76 20 0.3 32.6
15:45 1018 30.06 847 25.01 24.8 76.6 19 -0.3 31.5
15:50 1018 30.06 847 25.01 24.7 76.4 19 -0.1 31.9
15:55 1018 30.06 847 25.01 24.7 76.5 19 0.1 32.2
16:00 1018 30.06 847 25.01 23.8 74.8 20 -0.1 31.9
16:05 1018 30.06 847 25.01 23.8 74.8 20 -0.2 31.6
16:10 1018 30.06 847 25.01 24.4 75.9 19 -0.6 30.9
16:15 1018 30.06 847 25.01 24.3 75.8 18 -1.1 30
16:20 1018 30.06 847 25.01 24.2 75.6 19 -0.8 30.6
16:25 1018 30.06 847 25.01 24.5 76.1 18 -0.9 30.3
16:30 1018 30.06 847 25.01 23.8 74.8 20 -0.5 31.1
16:35 1018 30.06 847 25.01 23.2 73.7 20 -0.7 30.7
16:40 1018 30.06 847 25.01 23.7 74.7 21 0.3 32.5
16:45 1018 30.06 847 25.01 23.6 74.4 15 -3.9 24.9
16:50 1018 30.06 847 25.01 24.1 75.5 15 -3.7 25.4
16:55 1018 30.06 847 25.01 24.4 75.9 16 -3 26.6
17:00 1018 30.06 847 25.01 24.4 75.9 16 -3.2 26.2
17:05 1017 30.03 847 25.01 24.8 76.7 15 -3 26.6
17:10 1017 30.03 847 25.01 25.5 78 14 -3.3 26
17:15 1017 30.03 847 25.01 25.1 77.2 15 -2.9 26.7
17:20 1017 30.03 847 25.01 25.3 77.5 15 -2.9 26.8
17:25 1017 30.03 847 25.01 24.9 76.8 16 -2 28.4
17:30 1017 30.03 847 25.01 24.6 76.2 15 -3.2 26.2
17:35 1017 30.03 847 25.01 25.2 77.3 15 -2.7 27.2
17:40 1017 30.03 846 24.98 25.2 77.4 15 -3.1 26.4
17:45 1017 30.03 846 24.98 25.1 77.1 15 -3.5 25.6
17:50 1017 30.03 846 24.98 25.3 77.6 15 -2.9 26.7
17:55 1017 30.03 846 24.98 25.3 77.5 15 -3.3 26
18:00 1017 30.03 846 24.98 25.1 77.1 15 -3.5 25.6
18:05 1017 30.03 846 24.98 25 77 15 -3.1 26.5
18:10 1017 30.03 846 24.98 25.2 77.4 15 -3.4 25.9
18:15 1017 30.03 846 24.98 25 77.1 15 -3.4 25.8
18:20 1017 30.03 846 24.98 24.8 76.7 15 -3.6 25.5
18:25 1017 30.03 846 24.98 24.9 76.7 14 -3.8 25.1
18:30 1017 30.03 846 24.98 24.6 76.3 14 -4.5 23.9
18:35 1017 30.03 846 24.98 24.6 76.3 14 -4.2 24.5
18:40 1017 30.03 846 24.98 24.5 76 14 -4.3 24.2
18:45 1017 30.03 846 24.98 24.3 75.7 15 -4.1 24.6
18:50 1017 30.03 846 24.98 24.1 75.4 14 -4.4 24
18:55 1017 30.03 846 24.98 24.1 75.3 14 -4.4 24
19:00 1017 30.03 846 24.98 24.2 75.5 14 -4.6 23.7
19:05 1017 30.03 846 24.98 23.9 75 14 -4.8 23.4
19:10 1017 30.03 846 24.98 24 75.1 15 -4.2 24.5
19:15 1017 30.03 846 24.98 24 75.2 15 -3.8 25.2
19:20 1017 30.03 846 24.98 23.5 74.3 16 -3.3 26
19:25 1017 30.03 846 24.98 23.2 73.7 16 -4.1 24.7
19:30 1017 30.03 846 24.98 23.1 73.7 16 -3.6 25.6
19:35 1017 30.03 846 24.98 23 73.4 17 -3.1 26.5
19:40 1017 30.03 846 24.98 23 73.3 17 -3.2 26.2
19:45 1017 30.03 847 25.01 22.8 73.1 18 -2.7 27.1
19:50 1017 30.03 847 25.01 22.7 72.9 18 -3 26.6
19:55 1017 30.03 847 25.01 22.6 72.7 18 -2.5 27.6
20:00 1017 30.03 847 25.01 22.5 72.5 18 -2.5 27.5
20:05 1017 30.03 847 25.01 22.5 72.5 19 -2.1 28.3
20:10 1017 30.03 847 25.01 22.3 72.1 19 -2.2 28
20:15 1018 30.06 847 25.01 22.1 71.7 19 -2.3 27.8
20:20 1018 30.06 847 25.01 21.9 71.4 20 -2.2 28
20:25 1018 30.06 847 25.01 21.7 71.1 19 -2.5 27.5
20:30 1018 30.06 847 25.01 21.5 70.7 19 -3 26.6
20:35 1018 30.06 847 25.01 21.3 70.3 19 -3.4 25.9
20:40 1018 30.06 847 25.01 21.1 70 19 -3.2 26.3
20:45 1018 30.06 847 25.01 20.9 69.6 18 -3.8 25.2
20:50 1018 30.06 847 25.01 20.8 69.4 18 -4.2 24.5
20:55 1018 30.06 847 25.01 20.6 69.1 18 -4.1 24.6
21:00 1018 30.06 847 25.01 20.5 68.9 19 -4.1 24.6
21:05 1018 30.06 847 25.01 20.3 68.6 18 -4.6 23.8
21:10 1018 30.06 847 25.01 20.2 68.3 18 -4.8 23.4
21:15 1018 30.06 847 25.01 20.1 68.1 18 -4.5 23.8
21:20 1018 30.06 847 25.01 20 68 19 -4.2 24.5
21:25 1018 30.06 847 25.01 19.8 67.6 19 -4.6 23.6
21:30 1018 30.06 847 25.01 19.6 67.3 20 -4 24.7
21:35 1018 30.06 848 25.04 19.1 66.4 24 -1.9 28.6
21:40 1018 30.06 848 25.04 17.5 63.5 27 -1.3 29.6
21:45 1018 30.06 848 25.04 16.3 61.3 30 -1.3 29.6
21:50 1019 30.09 848 25.04 16.1 61 28 -2.3 27.8
21:55 1019 30.09 848 25.04 16.5 61.7 28 -2 28.4
22:00 1019 30.09 848 25.04 16.5 61.7 30 -1.3 29.7
22:05 1019 30.09 848 25.04 16.4 61.6 26 -2.8 27
22:10 1019 30.09 848 25.04 16.8 62.3 28 -1.6 29.2
22:15 1019 30.09 848 25.04 16.5 61.7 30 -0.9 30.3
22:20 1019 30.09 848 25.04 16.2 61.1 31 -1 30.2
22:25 1019 30.09 848 25.04 16 60.8 31 -1 30.2
22:30 1019 30.09 848 25.04 15.9 60.5 31 -1.1 30
22:35 1019 30.09 848 25.04 15.8 60.4 31 -1.1 30
22:40 1019 30.09 848 25.04 15.7 60.2 32 -1 30.2
22:45 1019 30.09 848 25.04 15.5 59.8 32 -1 30.2
22:50 1019 30.09 848 25.04 15.1 59.2 32 -1.5 29.3
22:55 1019 30.09 849 25.07 15.4 59.6 32 -1.1 30
23:00 1019 30.09 849 25.07 15.1 59.2 32 -1.2 29.8
23:05 1019 30.09 849 25.07 15.3 59.5 33 -0.9 30.5
23:10 1019 30.09 849 25.07 15.3 59.5 32 -1.1 29.9
23:15 1019 30.09 849 25.07 14.9 58.8 33 -1.1 30.1
23:20 1019 30.09 849 25.07 14.7 58.4 34 -0.8 30.5
23:25 1019 30.09 849 25.07 14.5 58 34 -0.9 30.3
23:30 1020 30.12 849 25.07 14.1 57.4 36 -0.7 30.8
23:35 1020 30.12 849 25.07 13.9 57.1 36 -1 30.2
23:40 1020 30.12 849 25.07 13.7 56.6 36 -0.9 30.4
23:45 1020 30.12 849 25.07 13.7 56.7 36 -0.9 30.4
23:50 1020 30.12 849 25.07 13.9 56.9 36 -0.8 30.6
23:55 1020 30.12 849 25.07 13.7 56.6 37 -0.8 30.6
24:00 1020 30.12 849 25.07 13.5 56.2 38 -0.4 31.3